Time;durP1;ratioP1;P1;durP2;ratioP2;P2;SDS_P1;SDS_P2;PMS_P1;PMS_P2;Temp;Humidity;BMP_temperature;BMP_pressure;BME280_temperature;BME280_humidity;BME280_pressure;Samples;Min_cycle;Max_cycle;Signal;HPM_P1;HPM_P2
2023/10/18 00:01:54;;;;;;;5.73;3.20;;;7.00;99.90;;;;;;5135489;27;20529;-83
2023/10/18 00:04:23;;;;;;;7.93;3.40;;;7.00;99.90;;;;;;5137472;27;20466;-83
2023/10/18 00:06:54;;;;;;;4.43;4.03;;;7.00;99.90;;;;;;5137439;27;20445;-83
2023/10/18 00:12:07;;;;;;;9.50;3.83;;;7.00;99.90;;;;;;5137439;27;20402;-83
2023/10/18 00:14:34;;;;;;;5.30;2.40;;;7.00;99.90;;;;;;5137252;27;20537;-83
2023/10/18 00:17:02;;;;;;;11.20;3.17;;;7.10;99.90;;;;;;5137239;27;20446;-83
2023/10/18 00:19:29;;;;;;;9.17;4.67;;;7.00;99.90;;;;;;5137250;27;20449;-84
2023/10/18 00:21:55;;;;;;;4.83;3.63;;;7.00;99.90;;;;;;5140447;27;20449;-83
2023/10/18 00:24:22;;;;;;;4.30;2.67;;;7.00;99.90;;;;;;5137348;27;20474;-83
2023/10/18 00:26:49;;;;;;;6.40;3.17;;;7.00;99.90;;;;;;5137136;27;20470;-84
2023/10/18 00:29:16;;;;;;;6.40;4.07;;;6.90;99.90;;;;;;5137030;27;20816;-83
2023/10/18 00:31:43;;;;;;;5.17;3.23;;;6.90;99.90;;;;;;5137008;27;20445;-83
2023/10/18 00:34:11;;;;;;;4.27;2.60;;;6.80;99.90;;;;;;5136856;27;20454;-83
2023/10/18 00:36:40;;;;;;;8.47;4.67;;;6.70;99.90;;;;;;5136907;27;20447;-83
2023/10/18 00:39:19;;;;;;;3.87;2.80;;;6.60;99.90;;;;;;5136802;27;20438;-83
2023/10/18 00:41:46;;;;;;;4.10;2.40;;;6.60;99.90;;;;;;5136316;27;20482;-83
2023/10/18 00:44:14;;;;;;;13.03;4.13;;;6.60;99.90;;;;;;5136616;27;20489;-84
2023/10/18 00:46:41;;;;;;;5.03;2.70;;;6.60;99.90;;;;;;5136384;27;20442;-83
2023/10/18 00:49:14;;;;;;;5.73;3.10;;;6.60;99.90;;;;;;5136972;27;20804;-83
2023/10/18 00:51:43;;;;;;;7.33;3.03;;;6.60;99.90;;;;;;5136411;27;20419;-83
2023/10/18 00:54:11;;;;;;;9.03;3.20;;;6.60;99.90;;;;;;5136475;27;20473;-83
2023/10/18 00:56:40;;;;;;;6.60;2.90;;;6.60;99.90;;;;;;5136511;27;20449;-83
2023/10/18 00:59:18;;;;;;;9.47;4.00;;;6.60;99.90;;;;;;5136443;27;20457;-83
2023/10/18 01:01:46;;;;;;;5.40;3.30;;;6.60;99.90;;;;;;5136494;27;20423;-84
2023/10/18 01:04:15;;;;;;;6.77;3.77;;;6.50;99.90;;;;;;5136210;27;20485;-83
2023/10/18 01:06:50;;;;;;;8.97;2.80;;;6.50;99.90;;;;;;5136345;27;20438;-84
2023/10/18 01:09:17;;;;;;;2.60;1.60;;;6.40;99.90;;;;;;5136328;27;20483;-83
2023/10/18 01:11:46;;;;;;;2.87;2.67;;;6.50;99.90;;;;;;5135543;27;20453;-83
2023/10/18 01:14:17;;;;;;;3.13;2.70;;;6.50;99.90;;;;;;5136147;27;20520;-83
2023/10/18 01:16:45;;;;;;;3.37;2.60;;;6.40;99.90;;;;;;5136206;27;20499;-83
2023/10/18 01:19:15;;;;;;;8.80;3.20;;;6.40;99.90;;;;;;5136016;27;20447;-83
2023/10/18 01:21:45;;;;;;;10.00;4.10;;;6.50;99.90;;;;;;5135770;27;20450;-83
2023/10/18 01:24:15;;;;;;;2.80;2.50;;;6.40;99.90;;;;;;5135541;27;20480;-83
2023/10/18 01:26:43;;;;;;;6.10;4.30;;;6.40;99.90;;;;;;5135607;27;21033;-83
2023/10/18 01:29:10;;;;;;;7.27;2.03;;;6.40;99.90;;;;;;5135854;27;20438;-83
2023/10/18 01:31:43;;;;;;;3.90;2.77;;;6.30;99.90;;;;;;5135794;27;20443;-83
2023/10/18 01:34:10;;;;;;;6.50;4.60;;;6.30;99.90;;;;;;5135674;27;20462;-83
2023/10/18 01:36:39;;;;;;;4.47;2.60;;;6.30;99.90;;;;;;5135657;27;20446;-83
2023/10/18 01:39:18;;;;;;;4.80;2.23;;;6.30;99.90;;;;;;5135648;27;20446;-83
2023/10/18 01:41:47;;;;;;;2.90;1.73;;;6.30;99.90;;;;;;5135174;27;20477;-84
2023/10/18 01:44:18;;;;;;;10.93;3.63;;;6.20;99.90;;;;;;5135429;27;20490;-83
2023/10/18 01:46:46;;;;;;;4.13;2.70;;;6.20;99.90;;;;;;5135589;27;20518;-83
2023/10/18 01:49:16;;;;;;;7.50;2.77;;;6.20;99.90;;;;;;5135099;27;20942;-83
2023/10/18 01:51:44;;;;;;;4.97;2.43;;;6.10;99.90;;;;;;5135123;27;21013;-83
2023/10/18 01:54:12;;;;;;;7.43;4.73;;;6.10;99.90;;;;;;5135309;27;20488;-83
2023/10/18 01:56:41;;;;;;;3.40;2.80;;;6.10;99.90;;;;;;5135284;27;20450;-84
2023/10/18 01:59:13;;;;;;;5.47;3.33;;;6.10;99.90;;;;;;5134962;27;20454;-83
2023/10/18 02:01:40;;;;;;;2.47;2.27;;;6.10;99.90;;;;;;5135263;27;20885;-83
2023/10/18 02:04:11;;;;;;;4.10;2.13;;;6.10;99.90;;;;;;5134988;27;20843;-83
2023/10/18 02:06:38;;;;;;;5.50;3.90;;;6.00;99.90;;;;;;5134935;27;21010;-83
2023/10/18 02:09:09;;;;;;;4.23;2.47;;;6.10;99.90;;;;;;5134833;27;20456;-83
2023/10/18 02:11:36;;;;;;;3.67;2.73;;;6.10;99.90;;;;;;5135315;27;20521;-83
2023/10/18 02:14:04;;;;;;;4.87;1.73;;;6.10;99.90;;;;;;5134693;27;20454;-83
2023/10/18 02:16:33;;;;;;;4.50;3.63;;;6.10;99.90;;;;;;5135000;27;20533;-84
2023/10/18 02:19:00;;;;;;;5.43;2.90;;;6.10;99.90;;;;;;5134558;27;20935;-84
2023/10/18 02:21:27;;;;;;;3.00;2.70;;;6.20;99.90;;;;;;5135473;27;20439;-83
2023/10/18 02:23:53;;;;;;;2.60;2.37;;;6.10;99.90;;;;;;5134094;27;20830;-83
2023/10/18 02:26:31;;;;;;;4.90;3.07;;;6.10;99.90;;;;;;5134732;27;20481;-83
2023/10/18 02:28:59;;;;;;;3.20;2.77;;;6.10;99.90;;;;;;5134754;27;20422;-83
2023/10/18 02:31:26;;;;;;;5.77;1.90;;;6.10;99.90;;;;;;5134399;27;20442;-83
2023/10/18 02:33:54;;;;;;;6.33;3.27;;;6.10;99.90;;;;;;5134289;27;20470;-83
2023/10/18 02:36:21;;;;;;;4.33;3.07;;;6.10;99.90;;;;;;5134622;27;20441;-83
2023/10/18 02:38:49;;;;;;;4.27;3.17;;;6.10;99.90;;;;;;5134626;27;20441;-83
2023/10/18 02:41:20;;;;;;;5.27;3.53;;;6.00;99.90;;;;;;5134202;27;20531;-83
2023/10/18 02:43:49;;;;;;;3.00;2.60;;;6.00;99.90;;;;;;5134670;27;20465;-83
2023/10/18 02:46:16;;;;;;;8.00;3.90;;;6.00;99.90;;;;;;5134462;27;20485;-83
2023/10/18 02:48:44;;;;;;;6.70;3.63;;;6.00;99.90;;;;;;5134500;27;20438;-83
2023/10/18 02:51:12;;;;;;;6.80;3.33;;;6.00;99.90;;;;;;5134460;27;20502;-83
2023/10/18 02:53:40;;;;;;;4.60;3.00;;;6.00;99.90;;;;;;5134187;27;20447;-83
2023/10/18 02:56:08;;;;;;;3.23;2.70;;;6.00;99.90;;;;;;5134420;27;20507;-83
2023/10/18 02:58:38;;;;;;;2.40;2.00;;;6.00;99.90;;;;;;5134409;27;20447;-83
2023/10/18 03:01:06;;;;;;;1.67;1.33;;;6.00;99.90;;;;;;5134468;27;20450;-83
2023/10/18 03:03:33;;;;;;;10.70;3.83;;;6.00;99.90;;;;;;5134514;27;20466;-83
2023/10/18 03:06:05;;;;;;;5.23;2.17;;;6.00;99.90;;;;;;5133910;27;20480;-83
2023/10/18 03:08:33;;;;;;;3.90;2.60;;;6.00;99.90;;;;;;5134366;27;20426;-83
2023/10/18 03:11:04;;;;;;;5.40;2.90;;;6.10;99.90;;;;;;5134692;27;20442;-84
2023/10/18 03:13:31;;;;;;;3.33;2.50;;;6.10;99.90;;;;;;5134350;27;21040;-83
2023/10/18 03:16:15;;;;;;;6.43;2.20;;;6.10;99.90;;;;;;5133933;27;21025;-83
2023/10/18 03:18:42;;;;;;;6.10;3.50;;;6.00;99.90;;;;;;5134235;27;20475;-83
2023/10/18 03:21:14;;;;;;;4.10;2.53;;;6.00;99.90;;;;;;5133868;27;20445;-83
2023/10/18 03:23:45;;;;;;;6.03;3.13;;;5.90;99.90;;;;;;5134197;27;20458;-83
2023/10/18 03:26:12;;;;;;;5.43;2.60;;;6.00;99.90;;;;;;5134299;27;20462;-83
2023/10/18 03:28:41;;;;;;;3.33;2.83;;;5.90;99.90;;;;;;5134065;27;20465;-83
2023/10/18 03:31:21;;;;;;;2.90;2.70;;;6.10;99.90;;;;;;5134071;27;20534;-83
2023/10/18 03:33:52;;;;;;;5.43;2.60;;;5.90;99.90;;;;;;5134030;27;20458;-83
2023/10/18 03:36:20;;;;;;;6.60;2.63;;;5.90;99.90;;;;;;5137330;27;20434;-83
2023/10/18 03:38:53;;;;;;;6.13;3.73;;;5.90;99.90;;;;;;5137798;27;20452;-83
2023/10/18 03:41:22;;;;;;;6.47;2.90;;;5.90;99.90;;;;;;5137559;27;20974;-83
2023/10/18 03:43:49;;;;;;;18.70;2.67;;;5.90;99.90;;;;;;5137509;27;20470;-83
2023/10/18 03:46:19;;;;;;;3.87;2.43;;;5.90;99.90;;;;;;5137826;27;20473;-83
2023/10/18 03:48:52;;;;;;;5.20;3.63;;;5.90;99.90;;;;;;5137946;27;20483;-83
2023/10/18 03:51:20;;;;;;;7.27;3.53;;;5.90;99.90;;;;;;5137825;27;20863;-83
2023/10/18 03:53:51;;;;;;;5.60;2.33;;;5.90;99.90;;;;;;5137662;27;20624;-84
2023/10/18 03:56:19;;;;;;;7.60;2.67;;;6.00;99.90;;;;;;5138582;27;20433;-83
2023/10/18 03:58:53;;;;;;;5.40;3.37;;;6.10;99.90;;;;;;5137623;27;20442;-83
2023/10/18 04:01:21;;;;;;;2.90;2.57;;;6.10;99.90;;;;;;5137666;27;20430;-83
2023/10/18 04:03:50;;;;;;;6.10;2.97;;;6.10;99.90;;;;;;5137441;27;20508;-83
2023/10/18 04:06:28;;;;;;;6.10;2.60;;;6.00;99.90;;;;;;5137403;27;20482;-84
2023/10/18 04:09:07;;;;;;;4.13;3.00;;;6.00;99.90;;;;;;5138326;27;20430;-83
2023/10/18 04:11:34;;;;;;;3.10;2.30;;;6.00;99.90;;;;;;5137459;27;20432;-84
2023/10/18 04:14:02;;;;;;;7.23;3.17;;;6.00;99.90;;;;;;5137239;27;20554;-83
2023/10/18 04:16:30;;;;;;;8.63;3.40;;;6.00;99.90;;;;;;5137291;27;20507;-83
2023/10/18 04:18:58;;;;;;;4.57;2.87;;;6.10;99.90;;;;;;5137237;27;20446;-83
2023/10/18 04:21:28;;;;;;;5.93;3.30;;;6.10;99.90;;;;;;5136891;27;20935;-83
2023/10/18 04:23:57;;;;;;;3.97;3.47;;;6.10;99.90;;;;;;5137121;27;20461;-83
2023/10/18 04:26:26;;;;;;;4.13;2.80;;;6.10;99.90;;;;;;5136703;27;21009;-83
2023/10/18 04:28:58;;;;;;;5.00;4.10;;;6.10;99.90;;;;;;5136782;27;21015;-83
2023/10/18 04:31:26;;;;;;;10.43;4.97;;;6.10;99.90;;;;;;5137225;27;20426;-84
2023/10/18 04:33:54;;;;;;;5.60;2.60;;;6.20;99.90;;;;;;5136880;27;20466;-83
2023/10/18 04:36:22;;;;;;;5.20;2.10;;;6.20;99.90;;;;;;5136600;27;20961;-83
2023/10/18 04:38:49;;;;;;;6.37;3.30;;;6.30;99.90;;;;;;5136879;27;20627;-83
2023/10/18 04:41:26;;;;;;;7.43;3.33;;;6.20;99.90;;;;;;5136458;27;20478;-83
2023/10/18 04:43:58;;;;;;;7.43;4.50;;;6.20;99.90;;;;;;5136729;27;20493;-83
2023/10/18 04:46:27;;;;;;;10.60;4.07;;;6.30;99.90;;;;;;5136420;27;20466;-83
2023/10/18 04:51:57;;;;;;;12.90;4.03;;;6.30;99.90;;;;;;5091420;28;20567;-83
2023/10/18 04:54:35;;;;;;;8.60;4.07;;;6.30;99.90;;;;;;5090625;28;20468;-83
2023/10/18 04:57:04;;;;;;;7.67;4.83;;;6.30;99.90;;;;;;5091230;28;20439;-83
2023/10/18 04:59:34;;;;;;;5.50;3.47;;;6.30;99.90;;;;;;5090314;28;20972;-83
2023/10/18 05:02:01;;;;;;;6.30;4.00;;;6.40;99.90;;;;;;5090717;28;20521;-83
2023/10/18 05:04:32;;;;;;;7.03;5.00;;;6.40;99.90;;;;;;5090598;28;20832;-83
2023/10/18 05:07:01;;;;;;;4.10;2.87;;;6.40;99.90;;;;;;5090686;28;20428;-83
2023/10/18 05:09:34;;;;;;;3.20;2.33;;;6.30;99.90;;;;;;5090739;28;20817;-83
2023/10/18 05:12:07;;;;;;;8.13;3.10;;;6.30;99.90;;;;;;5090175;28;20427;-83
2023/10/18 05:14:42;;;;;;;10.73;3.37;;;6.30;99.90;;;;;;5090244;28;20436;-84
2023/10/18 05:17:11;;;;;;;7.70;3.37;;;6.30;99.90;;;;;;5090452;28;20460;-83
2023/10/18 05:19:41;;;;;;;8.53;3.47;;;6.20;99.90;;;;;;5089931;28;20997;-83
2023/10/18 05:22:15;;;;;;;9.53;3.60;;;6.20;99.90;;;;;;5090318;28;20447;-83
2023/10/18 05:24:42;;;;;;;4.13;3.57;;;6.30;99.90;;;;;;5091127;28;20443;-83
2023/10/18 05:27:19;;;;;;;3.47;2.60;;;6.30;99.90;;;;;;5090310;28;20456;-87
2023/10/18 05:29:52;;;;;;;5.30;2.90;;;6.30;99.90;;;;;;5090231;28;20489;-83
2023/10/18 05:35:03;;;;;;;3.30;2.93;;;6.30;99.90;;;;;;5089773;28;20471;-84
2023/10/18 05:37:33;;;;;;;8.33;3.67;;;6.30;99.90;;;;;;5089688;28;20800;-84
2023/10/18 05:42:46;;;;;;;5.97;2.70;;;6.20;99.90;;;;;;5068720;28;20512;-83
2023/10/18 05:45:13;;;;;;;4.70;3.23;;;6.20;99.90;;;;;;5089810;28;20450;-83
2023/10/18 05:47:42;;;;;;;9.20;3.83;;;6.20;99.90;;;;;;5089555;28;20448;-83
2023/10/18 05:50:12;;;;;;;5.73;2.83;;;6.20;99.90;;;;;;5089582;28;20476;-84
2023/10/18 05:52:48;;;;;;;3.70;3.00;;;6.10;99.90;;;;;;5089680;28;20790;-84
2023/10/18 05:55:15;;;;;;;7.77;4.30;;;6.10;99.90;;;;;;5089451;28;20948;-83
2023/10/18 05:57:45;;;;;;;9.10;3.53;;;6.20;99.90;;;;;;5089691;28;20440;-83
2023/10/18 06:00:18;;;;;;;9.10;3.80;;;6.20;99.90;;;;;;5089244;28;21007;-83
2023/10/18 06:02:45;;;;;;;6.20;3.33;;;6.20;99.90;;;;;;5078907;28;20965;-84
2023/10/18 06:05:13;;;;;;;7.37;3.70;;;6.20;99.90;;;;;;5076178;28;20491;-83
2023/10/18 06:07:41;;;;;;;4.03;2.30;;;6.20;99.90;;;;;;5075597;28;20448;-84
2023/10/18 06:10:16;;;;;;;6.53;2.63;;;6.20;99.90;;;;;;5075874;28;20455;-84
2023/10/18 06:12:46;;;;;;;5.10;4.33;;;6.20;99.90;;;;;;5075572;28;20464;-83
2023/10/18 06:15:14;;;;;;;9.57;4.90;;;6.30;99.90;;;;;;5075626;28;20437;-83
2023/10/18 06:17:47;;;;;;;8.73;4.10;;;6.30;99.90;;;;;;5075639;28;20456;-83
2023/10/18 06:20:27;;;;;;;3.80;2.20;;;6.40;99.90;;;;;;5075444;28;20460;-83
2023/10/18 06:23:08;;;;;;;9.90;2.40;;;6.30;99.90;;;;;;5078116;28;20488;-83
2023/10/18 06:25:35;;;;;;;9.33;4.13;;;6.40;99.90;;;;;;5079757;28;20437;-83
2023/10/18 06:28:06;;;;;;;9.00;3.90;;;6.50;99.90;;;;;;5075645;28;20522;-83
2023/10/18 06:30:39;;;;;;;8.00;4.93;;;6.50;99.90;;;;;;5075721;28;20432;-83
2023/10/18 06:33:07;;;;;;;3.13;2.80;;;6.50;99.90;;;;;;5075568;28;20465;-83
2023/10/18 06:35:42;;;;;;;11.30;3.57;;;6.60;99.90;;;;;;5075184;28;20523;-84
2023/10/18 06:38:10;;;;;;;6.13;3.10;;;6.70;99.90;;;;;;5075455;28;20440;-83
2023/10/18 06:40:43;;;;;;;11.23;3.80;;;6.70;99.90;;;;;;5075038;28;20555;-83
2023/10/18 06:43:10;;;;;;;7.90;4.40;;;6.80;99.90;;;;;;5075304;28;20465;-83
2023/10/18 06:45:39;;;;;;;8.43;4.00;;;6.80;99.90;;;;;;5075128;28;20441;-86
2023/10/18 06:48:08;;;;;;;5.20;4.13;;;6.90;99.90;;;;;;5074922;28;20451;-83
2023/10/18 06:50:35;;;;;;;7.17;4.37;;;6.90;99.90;;;;;;5074724;28;21015;-83
2023/10/18 06:53:05;;;;;;;8.70;4.23;;;6.90;99.90;;;;;;5075070;28;20482;-83
2023/10/18 06:55:42;;;;;;;6.27;4.23;;;7.00;99.90;;;;;;5074884;28;20933;-84
2023/10/18 06:58:13;;;;;;;6.50;3.20;;;7.20;99.90;;;;;;5075064;28;20799;-83
2023/10/18 07:00:44;;;;;;;4.87;3.17;;;7.10;99.90;;;;;;5074622;28;20469;-83
2023/10/18 07:03:16;;;;;;;3.23;2.90;;;7.10;99.90;;;;;;5074888;28;20874;-84
2023/10/18 07:05:46;;;;;;;6.00;3.03;;;7.10;99.90;;;;;;5074648;28;20433;-83
2023/10/18 07:08:19;;;;;;;8.63;3.83;;;7.10;99.90;;;;;;5074526;28;20904;-84
2023/10/18 07:10:57;;;;;;;6.03;2.67;;;7.20;99.90;;;;;;5074833;28;20538;-83
2023/10/18 07:13:34;;;;;;;5.70;4.03;;;7.20;99.90;;;;;;5073766;28;20469;-84
2023/10/18 07:16:10;;;;;;;7.67;3.50;;;7.30;99.90;;;;;;5074695;28;20494;-84
2023/10/18 07:18:38;;;;;;;4.30;2.60;;;7.30;99.90;;;;;;5074669;28;20519;-84
2023/10/18 07:21:06;;;;;;;6.83;3.00;;;7.30;99.90;;;;;;5074431;28;20542;-84
2023/10/18 07:23:36;;;;;;;14.07;5.70;;;7.30;99.90;;;;;;5074439;28;20469;-84
2023/10/18 07:26:07;;;;;;;7.33;4.30;;;7.40;99.90;;;;;;5074364;28;20441;-84
2023/10/18 07:28:36;;;;;;;7.00;4.00;;;7.40;99.90;;;;;;5074507;28;20433;-83
2023/10/18 07:31:08;;;;;;;12.33;3.50;;;7.50;99.90;;;;;;5074429;28;20852;-84
2023/10/18 07:33:40;;;;;;;3.20;2.67;;;7.50;99.90;;;;;;5074267;28;20471;-84
2023/10/18 07:36:08;;;;;;;4.53;3.17;;;7.50;99.90;;;;;;5074061;28;20428;-84
2023/10/18 07:38:37;;;;;;;7.33;3.40;;;7.40;99.90;;;;;;5074271;28;20445;-83
2023/10/18 07:41:07;;;;;;;12.50;3.53;;;7.50;99.90;;;;;;5074138;28;20512;-84
2023/10/18 07:43:35;;;;;;;5.67;3.00;;;7.60;99.90;;;;;;5074652;28;20867;-84
2023/10/18 07:46:09;;;;;;;6.70;3.77;;;7.60;99.90;;;;;;5074149;28;20502;-84
2023/10/18 07:48:38;;;;;;;6.80;3.27;;;7.70;99.90;;;;;;5074129;28;20862;-84
2023/10/18 07:51:23;;;;;;;4.47;2.87;;;7.70;99.90;;;;;;5073525;28;20846;-83
2023/10/18 07:53:50;;;;;;;8.33;4.20;;;7.80;99.90;;;;;;5073928;28;20586;-84
2023/10/18 07:56:18;;;;;;;3.83;2.77;;;7.90;99.90;;;;;;5073885;28;20539;-84
2023/10/18 07:58:49;;;;;;;3.53;2.47;;;8.00;99.90;;;;;;5073870;28;20467;-84
2023/10/18 08:01:32;;;;;;;14.23;3.93;;;8.00;99.90;;;;;;5073825;28;20530;-84
2023/10/18 08:04:01;;;;;;;6.57;4.60;;;8.00;99.90;;;;;;5073778;28;20467;-83
2023/10/18 08:06:33;;;;;;;6.37;3.57;;;8.10;99.90;;;;;;5073485;28;20969;-83
2023/10/18 08:09:03;;;;;;;6.73;3.57;;;8.30;99.90;;;;;;5075055;28;20890;-84
2023/10/18 08:11:33;;;;;;;6.47;3.83;;;8.20;99.90;;;;;;5073630;28;20448;-83
2023/10/18 08:14:00;;;;;;;7.70;3.57;;;8.30;99.90;;;;;;5073570;28;20475;-83
2023/10/18 08:16:42;;;;;;;3.50;2.93;;;8.50;99.90;;;;;;5073649;28;20448;-83
2023/10/18 08:19:09;;;;;;;8.03;3.90;;;8.50;99.90;;;;;;5073997;28;20445;-83
2023/10/18 08:21:37;;;;;;;6.20;2.30;;;8.60;99.90;;;;;;5073475;28;20485;-81
2023/10/18 08:24:09;;;;;;;8.70;3.47;;;8.80;99.90;;;;;;5073104;28;20460;-81
2023/10/18 08:26:46;;;;;;;6.33;4.30;;;9.00;99.90;;;;;;5073013;28;20963;-80
2023/10/18 08:29:14;;;;;;;4.10;3.57;;;9.10;99.90;;;;;;5073411;28;20433;-81
2023/10/18 08:31:44;;;;;;;5.60;4.20;;;9.20;99.90;;;;;;5073366;28;20448;-83
2023/10/18 08:34:15;;;;;;;6.10;2.87;;;9.30;99.90;;;;;;5073301;28;20480;-83
2023/10/18 08:36:43;;;;;;;7.27;3.70;;;9.50;99.90;;;;;;5073405;28;20471;-83
2023/10/18 08:39:11;;;;;;;4.60;2.70;;;9.70;99.90;;;;;;5073001;28;20479;-81
2023/10/18 08:41:45;;;;;;;8.33;4.27;;;9.80;99.90;;;;;;5073257;28;20491;-83
2023/10/18 08:44:18;;;;;;;4.80;2.50;;;9.80;99.90;;;;;;5072957;28;20462;-83
2023/10/18 08:46:52;;;;;;;6.80;2.87;;;10.10;99.90;;;;;;5073352;28;20437;-83
2023/10/18 08:49:22;;;;;;;6.97;3.50;;;10.40;99.90;;;;;;5073353;28;20531;-83
2023/10/18 08:51:56;;;;;;;8.10;2.80;;;10.80;99.90;;;;;;5072119;28;20538;-83
2023/10/18 08:54:24;;;;;;;6.83;2.73;;;11.10;99.90;;;;;;5073158;28;20817;-83
2023/10/18 08:56:53;;;;;;;3.83;3.07;;;11.40;99.90;;;;;;5073421;28;20514;-84
2023/10/18 08:59:20;;;;;;;5.50;3.67;;;11.90;99.90;;;;;;5073140;28;20480;-83
2023/10/18 09:04:31;;;;;;;6.63;4.10;;;13.40;99.90;;;;;;5072627;28;20456;-83
2023/10/18 09:06:57;;;;;;;4.27;3.23;;;14.20;99.90;;;;;;5072763;28;20949;-84
2023/10/18 09:09:25;;;;;;;5.53;3.33;;;15.10;99.90;;;;;;5072797;28;20429;-83
2023/10/18 09:11:53;;;;;;;7.27;3.80;;;15.70;99.90;;;;;;5073029;28;20441;-82
2023/10/18 09:14:20;;;;;;;4.53;2.97;;;15.90;99.90;;;;;;5072915;28;20497;-83
2023/10/18 09:16:47;;;;;;;5.00;3.80;;;15.90;99.90;;;;;;5072706;28;20429;-84
2023/10/18 09:19:14;;;;;;;8.40;4.00;;;15.80;99.90;;;;;;5073007;28;20451;-83
2023/10/18 09:21:51;;;;;;;5.93;3.40;;;15.60;99.90;;;;;;5072651;28;20507;-83
2023/10/18 09:24:23;;;;;;;6.63;4.43;;;15.50;99.90;;;;;;5072912;28;20491;-83
2023/10/18 09:26:50;;;;;;;7.80;4.33;;;15.50;99.90;;;;;;5072951;28;20429;-83
2023/10/18 09:29:19;;;;;;;5.27;3.20;;;15.30;99.90;;;;;;5072505;28;20968;-83
2023/10/18 09:31:54;;;;;;;8.70;3.20;;;14.90;99.90;;;;;;5072800;28;20441;-83
2023/10/18 09:34:23;;;;;;;3.80;2.80;;;15.00;99.90;;;;;;5072737;28;20490;-83
2023/10/18 09:36:54;;;;;;;6.83;3.20;;;15.10;99.90;;;;;;5073711;28;20437;-83
2023/10/18 09:39:24;;;;;;;4.63;2.37;;;15.20;99.90;;;;;;5076254;28;20946;-83
2023/10/18 09:41:50;;;;;;;3.00;2.30;;;15.20;99.90;;;;;;5076403;28;20559;-82
2023/10/18 09:44:19;;;;;;;5.33;3.07;;;15.00;99.90;;;;;;5076431;28;20479;-83
2023/10/18 09:46:48;;;;;;;5.53;3.47;;;14.70;99.90;;;;;;5076618;28;20433;-83
2023/10/18 09:49:21;;;;;;;6.20;3.20;;;14.60;99.90;;;;;;5076337;28;20480;-83
2023/10/18 09:51:53;;;;;;;4.93;2.60;;;14.30;99.90;;;;;;5076488;28;20472;-83
2023/10/18 09:54:21;;;;;;;5.57;3.70;;;14.20;99.90;;;;;;5076282;28;20469;-83
2023/10/18 09:56:50;;;;;;;3.43;2.70;;;13.90;99.90;;;;;;5075952;28;20449;-83
2023/10/18 09:59:25;;;;;;;5.77;3.03;;;13.80;99.90;;;;;;5075873;28;20448;-82
2023/10/18 10:01:57;;;;;;;8.50;3.70;;;13.70;99.90;;;;;;5076404;28;20476;-83
2023/10/18 10:04:32;;;;;;;5.60;4.03;;;13.60;99.90;;;;;;5076013;28;20548;-83
2023/10/18 10:07:27;;;;;;;6.30;3.83;;;13.50;99.90;;;;;;5075755;28;20805;-82
2023/10/18 10:09:50;;;;;;;5.90;3.77;;;13.70;99.90;;;;;;5075562;28;20469;-82
2023/10/18 10:12:18;;;;;;;4.00;3.10;;;14.40;99.90;;;;;;5075614;28;20442;-83
2023/10/18 10:14:48;;;;;;;4.40;2.70;;;15.30;99.90;;;;;;5075719;28;20433;-83
2023/10/18 10:17:18;;;;;;;3.73;2.80;;;16.00;99.90;;;;;;5075927;28;20532;-82
2023/10/18 10:19:49;;;;;;;3.67;2.70;;;16.60;99.90;;;;;;5075460;28;20967;-82
2023/10/18 10:22:23;;;;;;;5.47;2.77;;;17.00;99.90;;;;;;5075770;28;20480;-83
2023/10/18 10:24:59;;;;;;;2.57;2.37;;;17.00;99.90;;;;;;5075865;28;20429;-83
2023/10/18 10:27:41;;;;;;;2.93;2.63;;;17.10;99.90;;;;;;5075577;28;20940;-83
2023/10/18 10:30:28;;;;;;;2.23;1.73;;;17.80;99.90;;;;;;5075711;28;20437;-82
2023/10/18 10:32:59;;;;;;;2.70;2.37;;;18.50;99.90;;;;;;5075559;28;20457;-83
2023/10/18 10:35:32;;;;;;;4.00;2.00;;;18.80;99.90;;;;;;5075612;28;20429;-82
2023/10/18 10:38:09;;;;;;;3.30;2.20;;;18.40;99.90;;;;;;5075299;28;20417;-83
2023/10/18 10:40:43;;;;;;;2.60;2.33;;;17.60;99.90;;;;;;5075424;28;20813;-83
2023/10/18 10:43:11;;;;;;;2.87;2.50;;;17.10;99.90;;;;;;5075305;28;20488;-83
2023/10/18 10:45:43;;;;;;;3.13;2.30;;;17.20;99.90;;;;;;5075350;28;20541;-83
2023/10/18 10:48:36;;;;;;;2.30;1.90;;;17.20;99.90;;;;;;5074983;28;20914;-83
2023/10/18 10:51:09;;;;;;;2.30;2.10;;;17.10;99.90;;;;;;5074862;28;20477;-84
2023/10/18 10:53:43;;;;;;;4.27;2.97;;;16.60;99.90;;;;;;5074817;28;20534;-84
2023/10/18 10:56:47;;;;;;;3.43;2.23;;;16.00;99.90;;;;;;5074884;28;20522;-84
2023/10/18 10:59:19;;;;;;;2.53;2.33;;;15.50;99.90;;;;;;5074877;28;20432;-83
2023/10/18 11:02:05;;;;;;;2.40;2.20;;;15.20;99.90;;;;;;5075220;28;20981;-83
2023/10/18 11:04:58;;;;;;;4.30;2.47;;;15.20;99.90;;;;;;5074567;28;20503;-83
2023/10/18 11:07:26;;;;;;;3.23;2.30;;;15.10;99.90;;;;;;5075803;28;20469;-83
2023/10/18 11:09:59;;;;;;;2.30;2.00;;;15.00;99.90;;;;;;5074780;28;20449;-83
2023/10/18 11:12:27;;;;;;;2.60;1.90;;;14.90;99.90;;;;;;5074822;28;20420;-83
2023/10/18 11:14:54;;;;;;;3.20;2.40;;;14.80;99.90;;;;;;5075127;28;20543;-83
2023/10/18 11:17:24;;;;;;;3.50;2.07;;;14.80;99.90;;;;;;5079284;28;20445;-81
2023/10/18 11:19:53;;;;;;;5.60;2.27;;;14.70;99.90;;;;;;5074388;28;20444;-84
2023/10/18 11:22:21;;;;;;;3.00;2.37;;;14.50;99.90;;;;;;5074156;28;20542;-83
2023/10/18 11:24:50;;;;;;;3.87;1.93;;;14.40;99.90;;;;;;5074265;28;20488;-82
2023/10/18 11:27:18;;;;;;;4.20;2.30;;;14.40;99.90;;;;;;5075109;28;20429;-83
2023/10/18 11:29:46;;;;;;;4.00;1.70;;;14.40;99.90;;;;;;5074124;28;20986;-83
2023/10/18 11:32:18;;;;;;;3.77;1.67;;;14.40;99.90;;;;;;5073970;28;20451;-83
2023/10/18 11:34:46;;;;;;;2.00;1.87;;;14.40;99.90;;;;;;5074005;28;20449;-83
2023/10/18 11:37:34;;;;;;;3.77;2.00;;;14.40;99.90;;;;;;5074121;28;20463;-83
2023/10/18 11:40:06;;;;;;;2.73;2.50;;;14.50;99.90;;;;;;5073900;28;20456;-83
2023/10/18 11:42:53;;;;;;;1.87;1.40;;;14.50;99.90;;;;;;5073730;28;20496;-83
2023/10/18 11:45:20;;;;;;;3.00;1.63;;;14.50;99.90;;;;;;5074194;28;20449;-83
2023/10/18 11:47:50;;;;;;;6.97;2.60;;;14.50;99.90;;;;;;5074071;28;20450;-83
2023/10/18 11:50:21;;;;;;;2.83;2.00;;;14.60;99.90;;;;;;5073557;28;20460;-83
2023/10/18 11:52:48;;;;;;;3.70;2.13;;;14.60;99.90;;;;;;5073978;28;20456;-83
2023/10/18 11:55:15;;;;;;;3.07;1.87;;;14.60;99.90;;;;;;5073642;28;20803;-83
2023/10/18 11:57:46;;;;;;;2.03;1.53;;;14.80;99.90;;;;;;5073872;28;20441;-84
2023/10/18 12:00:35;;;;;;;2.03;1.83;;;14.80;99.90;;;;;;5073446;28;20421;-83
2023/10/18 12:03:04;;;;;;;2.93;2.63;;;14.80;99.90;;;;;;5073462;28;20492;-83
2023/10/18 12:05:33;;;;;;;2.70;1.90;;;14.70;99.90;;;;;;5073788;28;20941;-83
2023/10/18 12:08:05;;;;;;;2.40;2.00;;;14.60;99.90;;;;;;5073759;28;20441;-83
2023/10/18 12:10:35;;;;;;;1.83;1.50;;;14.60;99.90;;;;;;5073819;28;20433;-83
2023/10/18 12:13:06;;;;;;;7.80;2.00;;;14.60;99.90;;;;;;5073664;28;20460;-83
2023/10/18 12:15:33;;;;;;;3.87;1.67;;;14.60;99.90;;;;;;5074002;28;20961;-83
2023/10/18 12:18:03;;;;;;;2.90;2.00;;;14.50;99.90;;;;;;5073351;28;20498;-83
2023/10/18 12:20:36;;;;;;;3.83;2.40;;;14.50;99.90;;;;;;5073588;28;20505;-83
2023/10/18 12:23:09;;;;;;;3.27;2.47;;;14.50;99.90;;;;;;5073450;28;20488;-83
2023/10/18 12:25:38;;;;;;;3.27;2.53;;;14.40;99.90;;;;;;5073533;28;20429;-82
2023/10/18 12:28:11;;;;;;;3.73;3.07;;;14.30;99.90;;;;;;5073514;28;20453;-83
2023/10/18 12:30:39;;;;;;;5.57;3.23;;;14.20;99.90;;;;;;5073510;28;20495;-83
2023/10/18 12:33:06;;;;;;;7.10;2.77;;;14.20;99.90;;;;;;5073091;28;20969;-83
2023/10/18 12:35:33;;;;;;;3.90;2.13;;;14.10;99.90;;;;;;5073435;28;20480;-83
2023/10/18 12:38:04;;;;;;;5.23;2.27;;;14.10;99.90;;;;;;5073085;28;20926;-83
2023/10/18 12:40:39;;;;;;;2.80;2.20;;;14.00;99.90;;;;;;5074077;28;20854;-83
2023/10/18 12:43:07;;;;;;;4.23;2.87;;;14.00;99.90;;;;;;5073232;28;20560;-80
2023/10/18 12:45:42;;;;;;;4.77;2.57;;;14.00;99.90;;;;;;5073327;28;20876;-83
2023/10/18 12:48:09;;;;;;;3.70;2.60;;;14.10;99.90;;;;;;5074137;28;20491;-83
2023/10/18 12:50:36;;;;;;;4.30;2.50;;;14.10;99.90;;;;;;5072974;28;20506;-83
2023/10/18 12:53:16;;;;;;;3.90;2.33;;;14.20;99.90;;;;;;5073150;28;20453;-83
2023/10/18 12:55:45;;;;;;;2.50;1.93;;;14.20;99.90;;;;;;5073296;28;20443;-81
2023/10/18 12:58:18;;;;;;;2.20;2.00;;;14.20;99.90;;;;;;5073882;28;20449;-83
2023/10/18 13:00:45;;;;;;;5.10;2.73;;;14.10;99.90;;;;;;5073212;28;20441;-83
2023/10/18 13:03:32;;;;;;;5.10;3.10;;;14.10;99.90;;;;;;5073025;28;20485;-83
2023/10/18 13:05:59;;;;;;;5.87;2.77;;;14.00;99.90;;;;;;5073149;28;20441;-83
2023/10/18 13:08:27;;;;;;;2.50;2.00;;;14.00;99.90;;;;;;5073088;28;20449;-83
2023/10/18 13:13:40;;;;;;;4.67;2.07;;;14.00;99.90;;;;;;5076612;28;20945;-83
2023/10/18 13:16:12;;;;;;;2.60;1.90;;;14.00;99.90;;;;;;5076782;28;20945;-83
2023/10/18 13:18:40;;;;;;;4.80;2.47;;;14.10;99.90;;;;;;5076685;28;20493;-83
2023/10/18 13:21:09;;;;;;;2.10;1.90;;;14.00;99.90;;;;;;5076604;28;20441;-83
2023/10/18 13:23:37;;;;;;;1.90;1.70;;;13.90;99.90;;;;;;5076430;28;20542;-83
2023/10/18 13:26:05;;;;;;;3.87;2.67;;;13.80;99.90;;;;;;5076575;28;21019;-83
2023/10/18 13:28:34;;;;;;;2.63;1.87;;;13.90;99.90;;;;;;5076872;28;20456;-83